Pegasus Peta — V7HR7 — position and weather

sailwx.info

Track history (hours):
 
Tides and Currents Weather Stations Pressure Air Temp Water Temp Dewpoint Dewpoint Depression Visibility Wind Speed Wind Dir Waves Ship Positions

Pegasus Peta

Last reported at 2017-Nov-18 13:41 UTC. Time now 2017-Nov-22 12:46 UTC.
Position N 34°54' E 139°22'.

Length 146 m; draft 8.8 m.

Type: Cargo ship. MMSI: 538005864.

Date/timePositionNaut miles runAvg speedWind from/ knotsBaromVisibWave heightAir tempDewpointWater temp
2017-Nov-18 13:41N 34°54' E 139°22'413.7
2017-Nov-18 13:23N 34°57' E 139°26'514.1
2017-Nov-18 13:00N 34°60' E 139°31'714.1
2017-Nov-18 12:30N 35°03' E 139°39'714.3
2017-Nov-18 12:00N 35°09' E 139°44'713.5
2017-Nov-18 11:30N 35°16' E 139°46'612.8
2017-Nov-18 11:00N 35°21' E 139°42'612.5
2017-Nov-18 10:30N 35°26' E 139°46'713.0
2017-Nov-18 10:00N 35°32' E 139°51'611.9
2017-Nov-18 09:28N 35°37' E 139°46'0 0.0
2017-Nov-18 02:40N 35°37' E 139°46'0 0.5
2017-Nov-18 02:25N 35°37' E 139°46'3 7.5
2017-Nov-18 02:00N 35°35' E 139°48'2 4.6
2017-Nov-18 01:30N 35°34' E 139°51'0 0.0
2017-Nov-18 01:01N 35°34' E 139°51'0 0.0
2017-Nov-18 00:31N 35°34' E 139°51'0 0.0
2017-Nov-18 00:00N 35°34' E 139°51'0 0.4
2017-Nov-17 23:31N 35°34' E 139°51'611.0
2017-Nov-17 23:00N 35°29' E 139°51'714.0
2017-Nov-17 22:30N 35°26' E 139°43'2 4.5
2017-Nov-17 22:00N 35°26' E 139°41'0 0.0
2017-Nov-17 21:30N 35°26' E 139°41'0 0.0
2017-Nov-17 21:00N 35°26' E 139°41'0 0.0
2017-Nov-17 20:30N 35°26' E 139°41'0 0.0
2017-Nov-17 20:00N 35°26' E 139°41'0 0.0
2017-Nov-17 19:21N 35°26' E 139°41'0 0.0
2017-Nov-17 19:00N 35°26' E 139°41'0 0.0
2017-Nov-17 18:30N 35°26' E 139°41'0 0.0
2017-Nov-17 18:00N 35°26' E 139°41'0 0.0
2017-Nov-17 17:30N 35°26' E 139°41'0 0.0
2017-Nov-17 17:00N 35°26' E 139°41'0 0.0
2017-Nov-17 16:30N 35°26' E 139°41'0 0.0
2017-Nov-17 16:00N 35°26' E 139°41'0 0.0
2017-Nov-17 15:30N 35°26' E 139°41'0 0.0
2017-Nov-17 15:00N 35°26' E 139°41'0 0.0
2017-Nov-17 14:30N 35°26' E 139°41'0 0.0
2017-Nov-17 14:00N 35°26' E 139°41'0 0.0
2017-Nov-17 13:30N 35°26' E 139°41'0 0.0
2017-Nov-17 13:00N 35°26' E 139°41'0 0.0
2017-Nov-17 12:30N 35°26' E 139°41'0 0.0
2017-Nov-17 12:00N 35°26' E 139°41'0 0.0
2017-Nov-17 11:30N 35°26' E 139°41'0 0.0
2017-Nov-17 11:00N 35°26' E 139°41'0 0.0
2017-Nov-17 10:30N 35°26' E 139°41'0 0.0
2017-Nov-17 10:00N 35°26' E 139°41'0 0.5
2017-Nov-17 09:30N 35°26' E 139°41'1 2.1
2017-Nov-17 09:01N 35°26' E 139°42'3 5.8
2017-Nov-17 08:30N 35°23' E 139°43'511.0
2017-Nov-17 08:01N 35°18' E 139°44'611.9
2017-Nov-17 07:31N 35°12' E 139°47'815.8
2017-Nov-17 07:01N 35°05' E 139°44'816.2
2017-Nov-17 06:31N 34°60' E 139°36'  
2017-Nov-13 01:58N 37°35' E 121°23'0 0.0
2017-Nov-13 01:28N 37°35' E 121°23'0 0.0
2017-Nov-13 00:58N 37°35' E 121°23'0 0.0
2017-Nov-13 00:25N 37°35' E 121°23'0 0.0
2017-Nov-12 23:52N 37°35' E 121°23'0 0.0
2017-Nov-12 23:28N 37°35' E 121°23'0 0.0
2017-Nov-12 22:58N 37°35' E 121°23'0 0.0
2017-Nov-12 22:28N 37°35' E 121°23'0 0.1
2017-Nov-12 21:55N 37°35' E 121°23'0 0.1
2017-Nov-12 21:28N 37°35' E 121°23'0 0.0
2017-Nov-12 20:58N 37°35' E 121°23'0 0.0
2017-Nov-12 20:28N 37°35' E 121°23'0 0.0
2017-Nov-12 19:58N 37°35' E 121°23'0 0.0
2017-Nov-12 19:19N 37°35' E 121°23'0 0.0
2017-Nov-12 18:58N 37°35' E 121°23'0 0.0
2017-Nov-12 18:28N 37°35' E 121°23'0 0.0
2017-Nov-12 17:58N 37°35' E 121°23'0 0.0
2017-Nov-12 17:25N 37°35' E 121°23'0 0.0
2017-Nov-12 16:58N 37°35' E 121°23'0 0.0
2017-Nov-12 16:25N 37°35' E 121°23'0 0.0
2017-Nov-12 15:52N 37°35' E 121°23'0 0.0
2017-Nov-12 15:28N 37°35' E 121°23'0 0.3
2017-Nov-12 15:00N 37°35' E 121°23'3 6.4
2017-Nov-12 14:30N 37°35' E 121°27'510.4
2017-Nov-12 14:00N 37°40' E 121°28'611.6
2017-Nov-12 13:30N 37°46' E 121°29'0 0.9
2017-Nov-12 12:58N 37°46' E 121°29'0 0.8
2017-Nov-12 12:28N 37°46' E 121°28'0 0.9
2017-Nov-12 11:58N 37°45' E 121°28'1 0.9
2017-Nov-12 11:25N 37°45' E 121°27'0 0.1
2017-Nov-12 10:59N 37°45' E 121°27'4 8.2
2017-Nov-12 10:30N 37°49' E 121°27'612.3
2017-Nov-12 10:00N 37°55' E 121°30'813.4
2017-Nov-12 09:26N 38°02' E 121°34'3814.5
2017-Nov-12 06:47N 38°38' E 121°50'415.0
2017-Nov-12 06:29N 38°42' E 121°52'11 0.3
2017-Nov-10 20:31N 38°52' E 121°59'0 4.5
2017-Nov-10 20:30N 38°52' E 121°60'1512.3
2017-Nov-10 19:19N 38°38' E 122°06'  
Track history (hours):
 
Tides and Currents Weather Stations Pressure Air Temp Water Temp Dewpoint Dewpoint Depression Visibility Wind Speed Wind Dir Waves Ship Positions

Pegasus Peta

Last reported at 2017-Nov-18 13:41 UTC. Time now 2017-Nov-22 12:46 UTC.
Position N 34°54' E 139°22'.

Length 146 m; draft 8.8 m.

Type: Cargo ship. MMSI: 538005864.

Date/timePositionNaut miles runAvg speedWind from/ knotsBaromVisibWave heightAir tempDewpointWater temp
2017-Nov-18 13:41N 34°54' E 139°22'413.7
2017-Nov-18 13:23N 34°57' E 139°26'514.1
2017-Nov-18 13:00N 34°60' E 139°31'714.1
2017-Nov-18 12:30N 35°03' E 139°39'714.3
2017-Nov-18 12:00N 35°09' E 139°44'713.5
2017-Nov-18 11:30N 35°16' E 139°46'612.8
2017-Nov-18 11:00N 35°21' E 139°42'612.5
2017-Nov-18 10:30N 35°26' E 139°46'713.0
2017-Nov-18 10:00N 35°32' E 139°51'611.9
2017-Nov-18 09:28N 35°37' E 139°46'0 0.0
2017-Nov-18 02:40N 35°37' E 139°46'0 0.5
2017-Nov-18 02:25N 35°37' E 139°46'3 7.5
2017-Nov-18 02:00N 35°35' E 139°48'2 4.6
2017-Nov-18 01:30N 35°34' E 139°51'0 0.0
2017-Nov-18 01:01N 35°34' E 139°51'0 0.0
2017-Nov-18 00:31N 35°34' E 139°51'0 0.0
2017-Nov-18 00:00N 35°34' E 139°51'0 0.4
2017-Nov-17 23:31N 35°34' E 139°51'611.0
2017-Nov-17 23:00N 35°29' E 139°51'714.0
2017-Nov-17 22:30N 35°26' E 139°43'2 4.5
2017-Nov-17 22:00N 35°26' E 139°41'0 0.0
2017-Nov-17 21:30N 35°26' E 139°41'0 0.0
2017-Nov-17 21:00N 35°26' E 139°41'0 0.0
2017-Nov-17 20:30N 35°26' E 139°41'0 0.0
2017-Nov-17 20:00N 35°26' E 139°41'0 0.0
2017-Nov-17 19:21N 35°26' E 139°41'0 0.0
2017-Nov-17 19:00N 35°26' E 139°41'0 0.0
2017-Nov-17 18:30N 35°26' E 139°41'0 0.0
2017-Nov-17 18:00N 35°26' E 139°41'0 0.0
2017-Nov-17 17:30N 35°26' E 139°41'0 0.0
2017-Nov-17 17:00N 35°26' E 139°41'0 0.0
2017-Nov-17 16:30N 35°26' E 139°41'0 0.0
2017-Nov-17 16:00N 35°26' E 139°41'0 0.0
2017-Nov-17 15:30N 35°26' E 139°41'0 0.0
2017-Nov-17 15:00N 35°26' E 139°41'0 0.0
2017-Nov-17 14:30N 35°26' E 139°41'0 0.0
2017-Nov-17 14:00N 35°26' E 139°41'0 0.0
2017-Nov-17 13:30N 35°26' E 139°41'0 0.0
2017-Nov-17 13:00N 35°26' E 139°41'0 0.0
2017-Nov-17 12:30N 35°26' E 139°41'0 0.0
2017-Nov-17 12:00N 35°26' E 139°41'0 0.0
2017-Nov-17 11:30N 35°26' E 139°41'0 0.0
2017-Nov-17 11:00N 35°26' E 139°41'0 0.0
2017-Nov-17 10:30N 35°26' E 139°41'0 0.0
2017-Nov-17 10:00N 35°26' E 139°41'0 0.5
2017-Nov-17 09:30N 35°26' E 139°41'1 2.1
2017-Nov-17 09:01N 35°26' E 139°42'3 5.8
2017-Nov-17 08:30N 35°23' E 139°43'511.0
2017-Nov-17 08:01N 35°18' E 139°44'611.9
2017-Nov-17 07:31N 35°12' E 139°47'815.8
2017-Nov-17 07:01N 35°05' E 139°44'816.2
2017-Nov-17 06:31N 34°60' E 139°36'  
2017-Nov-13 01:58N 37°35' E 121°23'0 0.0
2017-Nov-13 01:28N 37°35' E 121°23'0 0.0
2017-Nov-13 00:58N 37°35' E 121°23'0 0.0
2017-Nov-13 00:25N 37°35' E 121°23'0 0.0
2017-Nov-12 23:52N 37°35' E 121°23'0 0.0
2017-Nov-12 23:28N 37°35' E 121°23'0 0.0
2017-Nov-12 22:58N 37°35' E 121°23'0 0.0
2017-Nov-12 22:28N 37°35' E 121°23'0 0.1
2017-Nov-12 21:55N 37°35' E 121°23'0 0.1
2017-Nov-12 21:28N 37°35' E 121°23'0 0.0
2017-Nov-12 20:58N 37°35' E 121°23'0 0.0
2017-Nov-12 20:28N 37°35' E 121°23'0 0.0
2017-Nov-12 19:58N 37°35' E 121°23'0 0.0
2017-Nov-12 19:19N 37°35' E 121°23'0 0.0
2017-Nov-12 18:58N 37°35' E 121°23'0 0.0
2017-Nov-12 18:28N 37°35' E 121°23'0 0.0
2017-Nov-12 17:58N 37°35' E 121°23'0 0.0
2017-Nov-12 17:25N 37°35' E 121°23'0 0.0
2017-Nov-12 16:58N 37°35' E 121°23'0 0.0
2017-Nov-12 16:25N 37°35' E 121°23'0 0.0
2017-Nov-12 15:52N 37°35' E 121°23'0 0.0
2017-Nov-12 15:28N 37°35' E 121°23'0 0.3
2017-Nov-12 15:00N 37°35' E 121°23'3 6.4
2017-Nov-12 14:30N 37°35' E 121°27'510.4
2017-Nov-12 14:00N 37°40' E 121°28'611.6
2017-Nov-12 13:30N 37°46' E 121°29'0 0.9
2017-Nov-12 12:58N 37°46' E 121°29'0 0.8
2017-Nov-12 12:28N 37°46' E 121°28'0 0.9
2017-Nov-12 11:58N 37°45' E 121°28'1 0.9
2017-Nov-12 11:25N 37°45' E 121°27'0 0.1
2017-Nov-12 10:59N 37°45' E 121°27'4 8.2
2017-Nov-12 10:30N 37°49' E 121°27'612.3
2017-Nov-12 10:00N 37°55' E 121°30'813.4
2017-Nov-12 09:26N 38°02' E 121°34'3814.5
2017-Nov-12 06:47N 38°38' E 121°50'415.0
2017-Nov-12 06:29N 38°42' E 121°52'11 0.3
2017-Nov-10 20:31N 38°52' E 121°59'0 4.5
2017-Nov-10 20:30N 38°52' E 121°60'1512.3
2017-Nov-10 19:19N 38°38' E 122°06'  

Dump ship's entire track history